Observations
| Time | Sensor | AQI | SAQ | Temp °C | Hum % | Pres Pa | CO μg/m³ | H₂S μg/m³ | NO μg/m³ | NO₂ μg/m³ | O₃ μg/m³ | SO₂ μg/m³ | CO₂e PPM | VOC PPM | PM1 μg/m³ | PM2.5 μg/m³ | PM4 μg/m³ | PM10 μg/m³ | TPS µm |
|---|---|---|---|---|---|---|---|---|---|---|---|---|---|---|---|---|---|---|---|
| Tuesday 11 August 2026 | |||||||||||||||||||
| 17:40 | Trim Patrick St | 3 | 38.3 | 20 | 69,736 | 0 | 7.28 | 0.05 | 15.07 | 128.12 | 27.87 | 4.57 | 10.79 | 11.86 | |||||
| 17:40 | Trim Market St | 3 | 35.9 | 20 | 66,702 | 0 | 23.29 | 0.05 | 28.16 | 68.81 | 4.75 | 0.71 | 4.29 | 4.72 | |||||
| 17:39 | Trim Patrick St | 3 | 38.2 | 20 | 69,738 | 0 | 0 | 0.13 | 15.2 | 81.03 | 26.46 | 2.86 | 9.16 | 10.07 | |||||
| 17:39 | Trim Market St | 3 | 36.1 | 20 | 66,718 | 0 | 20.17 | 0.03 | 17.99 | 57.12 | 5.3 | 0.71 | 4.29 | 4.72 | |||||
| 17:38 | Trim Patrick St | 3 | 38.2 | 20 | 69,740 | 0 | 0 | 0.17 | 16.55 | 105.16 | 25.03 | 2 | 9.11 | 10.02 | |||||
| 17:38 | Trim Market St | 3 | 36.2 | 20 | 66,712 | 0 | 23.97 | 0.07 | 19.48 | 79.66 | 5.77 | 1.43 | 4.85 | 5.34 | |||||
| 17:37 | Trim Patrick St | 3 | 38.2 | 21 | 69,746 | 0 | 11.25 | 0.17 | 14.53 | 68.07 | 27.43 | 2.86 | 9.91 | 10.9 | |||||
| 17:37 | Trim Market St | 3 | 36.4 | 20 | 66,733 | 0 | 19.57 | 0.06 | 17.56 | 64.32 | 5.48 | 0.71 | 4.86 | 5.34 | |||||
| 17:36 | Trim Patrick St | 3 | 38.2 | 20 | 69,754 | 0 | 13.1 | 0.13 | 21.02 | 133.68 | 27.45 | 3.71 | 9.95 | 10.95 | |||||
| 17:36 | Trim Market St | 3 | 36.5 | 20 | 66,758 | 0 | 29.41 | 0.03 | 40.4 | 62.6 | 5.2 | 1.43 | 4.87 | 5.35 | |||||
| 17:35 | Trim Patrick St | 3 | 38.3 | 21 | 69,762 | 0 | 2.67 | 0.08 | 14.78 | 119.21 | 27.63 | 2 | 9.09 | 10 | |||||
| 17:35 | Trim Market St | 3 | 36.7 | 20 | 66,788 | 0 | 18.6 | 0.02 | 16.82 | 67.32 | 5.48 | 1.43 | 4.87 | 5.36 | |||||
| 17:34 | Trim Patrick St | 3 | 38.4 | 21 | 69,776 | 0 | 0 | 0.01 | 14.74 | 102.19 | 27.1 | 2.86 | 9.91 | 10.9 | |||||
| 17:33 | Trim Patrick St | 3 | 38.4 | 20 | 69,799 | 0 | 0 | 0 | 14.89 | 62.23 | 25.42 | 2 | 8.29 | 9.12 | |||||
| 17:32 | Trim Patrick St | 3 | 38.5 | 20 | 69,799 | 0 | 0 | 0 | 14.92 | 89 | 26.13 | 2.86 | 9.96 | 10.95 | |||||
| 17:31 | Trim Patrick St | 3 | 38.5 | 20 | 69,793 | 0 | 0 | 0 | 14.95 | 76.89 | 26.79 | 2 | 9.13 | 10.05 | |||||
| 17:31 | Trim Market St | 3 | 37.4 | 19 | 66,841 | 0 | 11.98 | 0.03 | 16.19 | 70.68 | 6.04 | 0 | 4.89 | 5.38 | |||||
| 17:30 | Trim Patrick St | 3 | 38.5 | 20 | 69,776 | 0 | 0 | 0 | 15.76 | 100 | 26.8 | 2.86 | 9.95 | 10.95 | |||||
| 17:29 | Trim Patrick St | 3 | 38.5 | 21 | 69,787 | 0 | 0 | 0 | 14.46 | 73.01 | 27.14 | 3.71 | 10.7 | 11.77 | |||||
| 17:29 | Trim Market St | 3 | 37.7 | 19 | 66,845 | 0 | 11.46 | 0 | 17.55 | 69.24 | 5.85 | 1.43 | 4.9 | 5.39 | |||||